createdAt,value
2019-01-12T00:01:01.520Z,83.78
2019-01-12T00:03:49.066Z,84.03
2019-01-12T00:06:36.381Z,84.09
2019-01-12T00:09:23.836Z,84.00
2019-01-12T00:12:11.915Z,84.13
2019-01-12T00:15:16.803Z,83.88
2019-01-12T00:18:04.460Z,83.87
2019-01-12T00:20:53.605Z,83.76
2019-01-12T00:23:40.698Z,83.69
2019-01-12T00:26:28.513Z,83.75
2019-01-12T00:29:17.045Z,82.13
2019-01-12T00:32:05.249Z,82.89
2019-01-12T00:35:01.888Z,81.45
2019-01-12T00:37:50.518Z,82.54
2019-01-12T00:44:01.134Z,83.55
2019-01-12T00:46:48.778Z,83.85
2019-01-12T00:49:35.868Z,82.29
2019-01-12T00:52:23.888Z,83.07
2019-01-12T00:55:11.225Z,83.54
2019-01-12T01:01:05.837Z,84.14
2019-01-12T01:03:53.074Z,84.29
2019-01-12T01:06:40.509Z,84.43
2019-01-12T01:12:34.249Z,84.48
2019-01-12T01:18:28.755Z,84.20
2019-01-12T01:21:16.145Z,83.79
2019-01-12T01:24:04.356Z,81.78
2019-01-12T01:26:51.753Z,82.22
2019-01-12T01:29:42.643Z,82.46
2019-01-12T01:32:30.280Z,82.51
2019-01-12T01:35:20.038Z,82.65
2019-01-12T01:38:12.196Z,82.76
2019-01-12T01:41:01.150Z,82.87
2019-01-12T01:46:55.124Z,81.36
2019-01-12T01:52:50.391Z,82.08
2019-01-12T01:55:37.815Z,82.15
2019-01-12T01:58:32.910Z,82.44
2019-01-12T02:01:20.471Z,82.67
2019-01-12T02:04:07.771Z,82.80
2019-01-12T02:06:55.482Z,81.19
2019-01-12T02:09:44.142Z,81.96
2019-01-12T02:12:32.559Z,82.40
2019-01-12T02:15:19.745Z,80.66
2019-01-12T02:18:06.938Z,81.36
2019-01-12T02:20:54.265Z,81.77
2019-01-12T02:23:41.727Z,82.04
2019-01-12T02:29:35.367Z,82.42
2019-01-12T02:32:22.618Z,82.60
2019-01-12T02:38:16.254Z,83.08
2019-01-12T02:41:03.581Z,83.28
2019-01-12T02:43:51.143Z,83.43
2019-01-12T02:46:39.691Z,81.88
2019-01-12T02:49:27.192Z,82.72
2019-01-12T02:52:14.621Z,83.13
2019-01-12T02:55:08.496Z,83.20
2019-01-12T03:04:04.506Z,82.53
2019-01-12T03:06:51.870Z,82.75
2019-01-12T03:09:42.583Z,82.81
2019-01-12T03:12:29.084Z,82.91
2019-01-12T03:15:19.273Z,82.99
2019-01-12T03:21:13.517Z,83.03
2019-01-12T03:24:01.008Z,82.97
2019-01-12T03:26:48.383Z,82.88
2019-01-12T03:29:35.923Z,82.84
2019-01-12T03:32:23.447Z,82.90
2019-01-12T03:35:10.787Z,82.91
2019-01-12T03:37:57.901Z,81.21
2019-01-12T03:40:47.640Z,81.83
2019-01-12T03:46:48.838Z,78.47
2019-01-12T03:49:37.349Z,79.81
2019-01-12T03:52:24.530Z,80.42
2019-01-12T03:55:13.344Z,80.64
2019-01-12T03:58:00.643Z,80.92
2019-01-12T04:00:48.063Z,81.08
2019-01-12T04:06:42.737Z,81.47
2019-01-12T04:09:30.561Z,81.55
2019-01-12T04:12:18.013Z,79.67
2019-01-12T04:15:09.105Z,80.55
2019-01-12T04:21:04.785Z,81.85
2019-01-12T04:23:54.524Z,82.30
2019-01-12T04:26:43.101Z,82.58
2019-01-12T04:29:30.605Z,82.81
2019-01-12T04:32:18.968Z,83.01
2019-01-12T04:35:10.158Z,83.20
2019-01-12T04:37:57.259Z,83.38
2019-01-12T04:40:47.100Z,83.50
2019-01-12T04:43:34.933Z,83.51
2019-01-12T04:46:30.053Z,83.27
2019-01-12T04:49:17.139Z,82.75
2019-01-12T04:52:04.464Z,82.43
2019-01-12T04:54:52.645Z,82.12
2019-01-12T04:57:42.516Z,80.09
2019-01-12T05:00:29.533Z,80.48
2019-01-12T05:03:17.731Z,80.73
2019-01-12T05:06:05.273Z,80.62
2019-01-12T05:08:52.821Z,80.46
2019-01-12T05:11:40.811Z,80.46
2019-01-12T05:14:28.455Z,78.46
2019-01-12T05:17:16.105Z,79.29
2019-01-12T05:23:10.367Z,78.82
2019-01-12T05:25:57.778Z,79.30
2019-01-12T05:28:46.490Z,80.30
2019-01-12T05:31:36.023Z,81.57
2019-01-12T05:34:23.377Z,82.81
2019-01-12T05:37:11.012Z,83.66
2019-01-12T05:40:00.853Z,84.50
2019-01-12T05:42:49.210Z,84.79
2019-01-12T05:45:36.930Z,83.46
2019-01-12T05:48:25.551Z,84.48
2019-01-12T05:51:15.228Z,85.08
2019-01-12T05:54:02.670Z,85.49
2019-01-12T05:56:50.120Z,85.71
2019-01-12T05:59:37.367Z,85.92
2019-01-12T06:02:24.903Z,85.96
2019-01-12T06:05:12.506Z,85.95
2019-01-12T06:08:02.584Z,85.97
2019-01-12T06:10:50.182Z,86.13
2019-01-12T06:13:37.589Z,86.03
2019-01-12T06:16:27.299Z,86.01
2019-01-12T06:19:14.979Z,86.08
2019-01-12T06:25:09.050Z,86.00
2019-01-12T06:27:56.159Z,84.41
2019-01-12T06:30:43.551Z,84.84
2019-01-12T06:33:30.764Z,83.48
2019-01-12T06:36:19.262Z,84.03
2019-01-12T06:39:07.454Z,84.26
2019-01-12T06:41:55.418Z,84.42
2019-01-12T06:44:42.600Z,84.39
2019-01-12T06:47:30.183Z,84.63
2019-01-12T06:50:19.657Z,84.77
2019-01-12T06:53:12.283Z,84.68
2019-01-12T06:59:06.562Z,84.55
2019-01-12T07:01:58.241Z,84.55
2019-01-12T07:04:50.199Z,84.47
2019-01-12T07:07:38.211Z,84.48
2019-01-12T07:10:25.926Z,84.44
2019-01-12T07:13:15.404Z,84.31
2019-01-12T07:16:02.570Z,84.29
2019-01-12T07:18:51.081Z,84.24
2019-01-12T07:21:38.720Z,84.08
2019-01-12T07:24:25.912Z,84.05
2019-01-12T07:27:13.441Z,84.10
2019-01-12T07:30:00.819Z,84.16
2019-01-12T07:32:48.066Z,84.17
2019-01-12T07:35:39.497Z,84.15
2019-01-12T07:38:29.590Z,82.46
2019-01-12T07:41:16.985Z,83.09
2019-01-12T07:44:05.029Z,83.50
2019-01-12T07:46:55.211Z,83.79
2019-01-12T07:49:43.056Z,84.04
2019-01-12T07:52:30.733Z,84.27
2019-01-12T07:55:18.953Z,84.52
2019-01-12T07:58:06.438Z,84.66
2019-01-12T08:00:53.754Z,84.86
2019-01-12T08:03:41.102Z,85.06
2019-01-12T08:06:36.194Z,85.23
2019-01-12T08:09:25.860Z,85.39
2019-01-12T08:12:13.382Z,85.57
2019-01-12T08:15:01.192Z,85.84
2019-01-12T08:17:48.870Z,85.88
2019-01-12T08:20:36.243Z,85.88
2019-01-12T08:23:23.646Z,85.97
2019-01-12T08:26:11.141Z,85.95
2019-01-12T08:28:59.702Z,85.86
2019-01-12T08:31:48.095Z,85.74
2019-01-12T08:34:35.484Z,85.58
2019-01-12T08:37:23.590Z,85.45
2019-01-12T08:43:18.485Z,85.30
2019-01-12T08:46:08.347Z,85.42
2019-01-12T08:48:59.345Z,85.53
2019-01-12T08:51:49.935Z,85.63
2019-01-12T08:54:37.576Z,85.66
2019-01-12T08:57:27.370Z,85.69
2019-01-12T09:09:33.748Z,86.17
2019-01-12T09:12:21.293Z,86.21
2019-01-12T09:15:08.457Z,86.28
2019-01-12T09:17:58.802Z,86.36
2019-01-12T09:21:05.348Z,84.64
2019-01-12T09:23:55.104Z,85.30
2019-01-12T09:42:13.462Z,85.23
2019-01-12T09:45:00.466Z,85.56
2019-01-12T09:47:55.844Z,85.68
2019-01-12T09:50:43.950Z,85.84
2019-01-12T09:56:37.951Z,83.50
2019-01-12T10:02:39.929Z,81.95
2019-01-12T10:05:27.452Z,80.60
2019-01-12T10:08:16.100Z,79.39
2019-01-12T10:11:04.453Z,81.15
2019-01-12T10:13:54.839Z,81.99
2019-01-12T10:16:46.466Z,82.17
2019-01-12T10:19:35.934Z,82.34
2019-01-12T10:22:28.527Z,82.52
2019-01-12T10:25:11.415Z,82.39
2019-01-12T10:27:58.761Z,82.42
2019-01-12T10:30:46.093Z,82.25
2019-01-12T10:33:34.038Z,79.35
2019-01-12T10:36:21.321Z,80.19
2019-01-12T10:39:09.179Z,80.40
2019-01-12T10:41:59.534Z,80.92
2019-01-12T10:44:47.929Z,81.05
2019-01-12T10:47:35.115Z,80.98
2019-01-12T10:50:22.348Z,80.81
2019-01-12T10:53:09.633Z,80.50
2019-01-12T10:55:57.492Z,80.48
2019-01-12T10:58:45.047Z,77.83
2019-01-12T11:01:32.436Z,79.43
2019-01-12T11:04:27.055Z,80.48
2019-01-12T11:07:14.630Z,78.44
2019-01-12T11:10:04.248Z,80.56
2019-01-12T11:12:49.917Z,81.40
2019-01-12T11:15:39.684Z,81.46
2019-01-12T11:18:27.007Z,81.17
2019-01-12T11:21:30.359Z,78.27
2019-01-12T11:24:17.855Z,79.33
2019-01-12T11:27:12.240Z,79.10
2019-01-12T11:29:56.528Z,76.04
2019-01-12T11:32:44.493Z,77.33
2019-01-12T11:35:36.132Z,77.91
2019-01-12T11:38:23.916Z,77.90
2019-01-12T11:41:15.016Z,78.08
2019-01-12T11:44:04.247Z,75.30
2019-01-12T11:46:55.722Z,76.90
2019-01-12T11:49:44.011Z,77.27
2019-01-12T11:52:31.480Z,77.47
2019-01-12T11:55:28.201Z,77.62
2019-01-12T11:58:34.091Z,78.12
2019-01-12T12:01:22.928Z,78.29
2019-01-12T12:04:10.158Z,78.21
2019-01-12T12:06:57.277Z,78.58
2019-01-12T12:09:48.464Z,77.91
2019-01-12T12:12:36.487Z,78.00
2019-01-12T12:15:23.478Z,78.08
2019-01-12T12:18:11.349Z,77.91
2019-01-12T12:20:58.781Z,78.33
2019-01-12T12:23:48.143Z,77.87
2019-01-12T12:26:36.825Z,78.20
2019-01-12T12:29:23.962Z,78.47
2019-01-12T12:32:19.778Z,78.26
2019-01-12T12:35:13.996Z,78.43
2019-01-12T12:37:58.622Z,78.53
2019-01-12T12:40:48.016Z,78.67
2019-01-12T12:43:36.706Z,78.66
2019-01-12T12:46:24.171Z,78.22
2019-01-12T12:49:15.391Z,78.44
2019-01-12T12:52:05.535Z,78.58
2019-01-12T12:54:53.622Z,78.38
2019-01-12T12:57:41.262Z,75.94
2019-01-12T13:00:28.578Z,77.10
2019-01-12T13:03:15.986Z,77.25
2019-01-12T13:06:06.449Z,77.83
2019-01-12T13:08:55.944Z,78.16
2019-01-12T13:11:44.564Z,78.59
2019-01-12T13:14:32.148Z,79.05
2019-01-12T13:17:19.709Z,77.02
2019-01-12T13:20:06.832Z,75.65
2019-01-12T13:22:55.001Z,77.39
2019-01-12T13:25:42.239Z,78.37
2019-01-12T13:28:29.411Z,78.68
2019-01-12T13:31:17.177Z,76.39
2019-01-12T13:37:11.915Z,78.91
2019-01-12T13:39:59.023Z,79.35
2019-01-12T13:42:46.292Z,79.98
2019-01-12T13:45:33.740Z,80.67
2019-01-12T13:48:25.776Z,81.42
2019-01-12T13:51:11.238Z,82.07
2019-01-12T13:53:58.629Z,82.63
2019-01-12T13:56:46.199Z,83.03
2019-01-12T13:59:34.812Z,83.85
2019-01-12T14:02:22.445Z,84.21
2019-01-12T14:05:09.828Z,84.52
2019-01-12T14:07:57.269Z,84.90
2019-01-12T14:10:44.908Z,85.24
2019-01-12T14:13:32.572Z,85.73
2019-01-12T14:16:26.596Z,86.06
2019-01-12T14:19:13.939Z,86.24
2019-01-12T14:22:02.019Z,86.37
2019-01-12T14:24:50.024Z,86.79
2019-01-12T14:30:43.694Z,83.94
2019-01-12T14:33:31.116Z,84.99
2019-01-12T14:36:18.698Z,85.57
2019-01-12T14:39:09.812Z,86.06
2019-01-12T14:41:59.438Z,86.16
2019-01-12T14:44:50.817Z,84.56
2019-01-12T14:47:39.399Z,85.68
2019-01-12T14:50:27.143Z,85.95
2019-01-12T14:53:15.064Z,86.18
2019-01-12T14:56:05.419Z,86.33
2019-01-12T14:58:54.412Z,86.62
2019-01-12T15:01:41.703Z,86.80
2019-01-12T15:04:29.657Z,87.18
2019-01-12T15:07:19.856Z,87.18
2019-01-12T15:10:07.412Z,87.32
2019-01-12T15:12:55.153Z,87.46
2019-01-12T15:15:43.332Z,87.55
2019-01-12T15:18:30.751Z,87.60
2019-01-12T15:21:26.011Z,87.72
2019-01-12T15:24:13.824Z,87.76
2019-01-12T15:27:03.763Z,87.91
2019-01-12T15:29:51.605Z,87.85
2019-01-12T15:32:39.109Z,87.85
2019-01-12T15:35:26.329Z,87.73
2019-01-12T15:38:30.259Z,87.87
2019-01-12T15:44:25.005Z,87.89
2019-01-12T15:50:19.465Z,87.91
2019-01-12T15:53:06.798Z,87.91
2019-01-12T15:55:56.842Z,87.80
2019-01-12T15:58:44.437Z,87.76
2019-01-12T16:01:33.267Z,87.78
2019-01-12T16:04:21.293Z,86.07
2019-01-12T16:07:08.669Z,86.63
2019-01-12T16:09:58.116Z,86.85
2019-01-12T16:12:54.191Z,86.98
2019-01-12T16:15:46.003Z,87.00
2019-01-12T16:18:37.279Z,87.07
2019-01-12T16:21:25.106Z,87.19
2019-01-12T16:24:12.984Z,85.61
2019-01-12T16:27:00.502Z,86.36
2019-01-12T16:29:48.037Z,86.62
2019-01-12T16:35:41.281Z,87.37
2019-01-12T16:38:29.118Z,87.60
2019-01-12T16:41:16.123Z,87.80
2019-01-12T16:44:03.935Z,87.91
2019-01-12T16:46:51.376Z,88.19
2019-01-12T16:49:39.243Z,88.61
2019-01-12T16:52:27.271Z,88.73
2019-01-12T16:55:14.628Z,88.90
2019-01-12T16:58:02.942Z,88.95
2019-01-12T17:00:50.598Z,89.07
2019-01-12T17:03:38.172Z,89.03
2019-01-12T17:06:26.123Z,89.06
2019-01-12T17:15:26.238Z,89.11
2019-01-12T17:18:14.119Z,88.93
2019-01-12T17:21:01.439Z,88.85
2019-01-12T17:23:49.945Z,88.77
2019-01-12T17:26:37.367Z,88.53
2019-01-12T17:29:29.750Z,88.39
2019-01-12T17:32:17.770Z,88.34
2019-01-12T17:35:08.868Z,88.25
2019-01-12T17:37:56.451Z,88.16
2019-01-12T17:40:45.070Z,88.14
2019-01-12T17:43:32.751Z,88.13
2019-01-12T17:46:25.305Z,88.01
2019-01-12T17:49:14.284Z,88.00
2019-01-12T17:52:02.235Z,87.98
2019-01-12T17:54:49.744Z,87.97
2019-01-12T17:57:38.324Z,86.52
2019-01-12T18:00:29.269Z,87.15
2019-01-12T18:03:17.000Z,87.31
2019-01-12T18:06:05.727Z,87.53
2019-01-12T18:08:53.222Z,87.57
2019-01-12T18:11:43.055Z,87.63
2019-01-12T18:35:55.255Z,88.17
2019-01-12T18:38:43.231Z,88.35
2019-01-12T18:41:32.971Z,86.97
2019-01-12T18:44:22.460Z,86.02
2019-01-12T18:47:09.915Z,87.18
2019-01-12T18:49:57.006Z,87.69
2019-01-12T18:52:44.438Z,88.24
2019-01-12T18:55:32.139Z,88.57
2019-01-12T18:58:19.593Z,88.91
2019-01-12T19:01:07.440Z,87.58
2019-01-12T19:03:55.206Z,88.39
2019-01-12T19:06:43.030Z,88.85
2019-01-12T19:09:30.778Z,89.14
2019-01-12T19:12:17.890Z,89.41
2019-01-12T19:15:05.972Z,89.64
2019-01-12T19:17:53.100Z,89.80
2019-01-12T19:20:43.847Z,90.06
2019-01-12T19:23:31.655Z,90.17
2019-01-12T19:26:18.846Z,88.93
2019-01-12T19:29:06.933Z,89.59
2019-01-12T19:31:54.864Z,90.02
2019-01-12T19:34:42.137Z,90.27
2019-01-12T19:37:29.892Z,90.38
2019-01-12T19:43:23.829Z,89.56
2019-01-12T19:46:11.382Z,89.73
2019-01-12T19:48:59.214Z,89.87
2019-01-12T19:51:50.745Z,89.86
2019-01-12T19:54:38.243Z,90.01
2019-01-12T19:57:28.200Z,90.06
2019-01-12T20:00:18.459Z,90.09
2019-01-12T20:03:07.631Z,90.10
2019-01-12T20:05:54.635Z,90.07
2019-01-12T20:08:46.400Z,90.08
2019-01-12T20:11:34.688Z,88.71
2019-01-12T20:14:23.455Z,87.78
2019-01-12T20:17:11.290Z,86.91
2019-01-12T20:19:58.809Z,86.13
2019-01-12T20:22:46.344Z,86.96
2019-01-12T20:25:33.562Z,87.51
2019-01-12T20:28:21.288Z,87.82
2019-01-12T20:31:27.678Z,88.19
2019-01-12T20:34:15.310Z,88.49
2019-01-12T20:37:03.210Z,87.26
2019-01-12T20:39:53.587Z,87.92
2019-01-12T20:43:02.459Z,88.28
2019-01-12T20:45:56.787Z,88.67
2019-01-12T20:48:53.288Z,88.81
2019-01-12T20:55:06.913Z,89.12
2019-01-12T21:01:51.495Z,89.32
2019-01-12T21:04:41.988Z,87.72
2019-01-12T21:07:35.112Z,88.20
2019-01-12T21:10:23.881Z,88.47
2019-01-12T21:13:48.497Z,88.53
2019-01-12T21:16:36.073Z,88.63
2019-01-12T21:19:23.530Z,88.66
2019-01-12T21:22:21.557Z,88.60
2019-01-12T21:25:09.567Z,88.62
2019-01-12T21:27:57.193Z,88.64
2019-01-12T21:30:45.276Z,88.60
2019-01-12T21:33:32.758Z,88.63
2019-01-12T21:36:21.133Z,88.58
2019-01-12T21:39:08.669Z,88.50
2019-01-12T21:41:58.637Z,88.38
2019-01-12T21:45:02.036Z,88.36
2019-01-12T21:47:50.417Z,88.32
2019-01-12T21:53:45.274Z,87.33
2019-01-12T21:56:32.770Z,87.49
2019-01-12T21:59:42.626Z,87.62
2019-01-12T22:02:26.671Z,87.67
2019-01-12T22:05:14.686Z,87.78
2019-01-12T22:08:02.288Z,87.85
2019-01-12T22:10:53.338Z,87.95
2019-01-12T22:13:40.660Z,87.95
2019-01-12T22:16:27.912Z,87.97
2019-01-12T22:19:15.127Z,88.02
2019-01-12T22:25:10.254Z,88.12
2019-01-12T22:28:00.716Z,88.15
2019-01-12T22:30:48.067Z,88.17
2019-01-12T22:33:35.378Z,88.22
2019-01-12T22:36:30.247Z,86.91
2019-01-12T22:39:17.726Z,87.32
2019-01-12T22:42:05.045Z,86.03
2019-01-12T22:44:52.520Z,85.02
2019-01-12T22:47:42.802Z,84.14
2019-01-12T22:50:31.538Z,85.31
2019-01-12T22:53:19.631Z,85.88
2019-01-12T22:56:06.872Z,86.31
2019-01-12T22:58:54.213Z,86.65
2019-01-12T23:01:43.229Z,86.99
2019-01-12T23:04:31.070Z,87.25
2019-01-12T23:07:18.585Z,87.49
2019-01-12T23:10:09.751Z,87.61
2019-01-12T23:25:25.328Z,88.12
2019-01-12T23:37:45.431Z,86.68
2019-01-12T23:46:46.151Z,86.48
2019-01-12T23:49:35.201Z,86.74
2019-01-12T23:52:23.935Z,86.96
2019-01-12T23:55:12.195Z,87.12
